createdAt,value
2023-05-14T00:02:41.148Z,100864.28
2023-05-14T00:05:44.101Z,100854.03
2023-05-14T00:08:46.560Z,100856.22
2023-05-14T00:11:49.499Z,100854.84
2023-05-14T00:14:52.651Z,100852.19
2023-05-14T00:17:55.432Z,100852.41
2023-05-14T00:20:57.964Z,100850.25
2023-05-14T00:24:00.794Z,100849.06
2023-05-14T00:27:03.884Z,100842.00
2023-05-14T00:30:07.293Z,100848.81
2023-05-14T00:33:10.100Z,100848.25
2023-05-14T00:36:12.878Z,100840.28
2023-05-14T00:39:15.350Z,100843.63
2023-05-14T00:42:18.198Z,100839.16
2023-05-14T00:45:20.917Z,100842.00
2023-05-14T00:48:24.423Z,100839.50
2023-05-14T00:51:27.049Z,100837.00
2023-05-14T00:54:30.583Z,100833.16
2023-05-14T00:57:34.828Z,100833.31
2023-05-14T01:00:38.999Z,100829.87
2023-05-14T01:03:42.421Z,100829.69
2023-05-14T01:07:00.600Z,100825.41
2023-05-14T01:10:17.263Z,100824.72
2023-05-14T01:13:33.915Z,100817.91
2023-05-14T01:16:38.915Z,100811.44
2023-05-14T01:19:43.047Z,100805.47
2023-05-14T01:22:45.725Z,100803.63
2023-05-14T01:25:48.741Z,100804.47
2023-05-14T01:28:52.876Z,100804.31
2023-05-14T01:31:57.506Z,100793.47
2023-05-14T01:35:01.742Z,100795.41
2023-05-14T01:38:08.098Z,100786.59
2023-05-14T01:41:10.792Z,100789.94
2023-05-14T01:44:14.154Z,100779.00
2023-05-14T01:47:16.708Z,100778.12
2023-05-14T01:50:19.732Z,100772.59
2023-05-14T01:53:22.222Z,100765.87
2023-05-14T01:56:25.875Z,100762.03
2023-05-14T01:59:29.871Z,100768.06
2023-05-14T02:02:32.911Z,100757.78
2023-05-14T02:05:35.690Z,100743.38
2023-05-14T02:08:38.135Z,100735.00
2023-05-14T02:11:40.901Z,100741.34
2023-05-14T02:14:43.738Z,100745.37
2023-05-14T02:17:46.506Z,100741.13
2023-05-14T02:20:49.234Z,100735.66
2023-05-14T02:23:52.869Z,100735.97
2023-05-14T02:26:56.189Z,100733.50
2023-05-14T02:30:00.836Z,100733.50
2023-05-14T02:33:03.929Z,100737.78
2023-05-14T02:36:07.116Z,100734.00
2023-05-14T02:39:09.901Z,100733.84
2023-05-14T02:42:12.499Z,100732.84
2023-05-14T02:45:15.354Z,100725.72
2023-05-14T02:48:17.796Z,100727.72
2023-05-14T02:51:21.572Z,100726.69
2023-05-14T02:54:24.160Z,100734.19
2023-05-14T02:57:26.936Z,100725.56
2023-05-14T03:00:29.691Z,100724.72
2023-05-14T03:03:32.931Z,100736.19
2023-05-14T03:06:36.127Z,100728.22
2023-05-14T03:09:38.905Z,100725.91
2023-05-14T03:12:41.768Z,100723.41
2023-05-14T03:15:44.791Z,100717.12
2023-05-14T03:18:47.292Z,100712.66
2023-05-14T03:21:50.269Z,100717.12
2023-05-14T03:24:53.005Z,100711.50
2023-05-14T03:27:55.772Z,100713.66
2023-05-14T03:30:58.413Z,100721.47
2023-05-14T03:34:01.334Z,100724.69
2023-05-14T03:37:04.035Z,100726.84
2023-05-14T03:40:07.574Z,100711.59
2023-05-14T03:43:11.756Z,100719.75
2023-05-14T03:46:15.532Z,100719.75
2023-05-14T03:49:18.081Z,100720.28
2023-05-14T03:52:20.926Z,100725.59
2023-05-14T03:55:23.585Z,100730.06
2023-05-14T03:58:26.331Z,100731.06
2023-05-14T04:01:28.957Z,100720.94
2023-05-14T04:04:33.736Z,100704.50
2023-05-14T04:07:37.873Z,100715.28
2023-05-14T04:10:40.688Z,100717.97
2023-05-14T04:13:43.231Z,100711.16
2023-05-14T04:16:46.593Z,100722.47
2023-05-14T04:19:49.147Z,100717.97
2023-05-14T04:22:52.072Z,100716.16
2023-05-14T04:25:54.585Z,100703.19
2023-05-14T04:28:58.273Z,100701.56
2023-05-14T04:32:00.919Z,100701.91
2023-05-14T04:35:05.037Z,100697.59
2023-05-14T04:38:07.513Z,100705.88
2023-05-14T04:41:10.475Z,100692.44
2023-05-14T04:44:13.075Z,100700.94
2023-05-14T04:47:15.797Z,100702.72
2023-05-14T04:50:18.600Z,100704.56
2023-05-14T04:53:21.365Z,100702.09
2023-05-14T04:56:23.847Z,100701.59
2023-05-14T04:59:26.627Z,100686.31
2023-05-14T05:02:29.128Z,100695.78
2023-05-14T05:05:31.963Z,100701.75
2023-05-14T05:08:34.476Z,100690.31
2023-05-14T05:11:37.923Z,100701.91
2023-05-14T05:14:40.468Z,100704.25
2023-05-14T05:17:43.339Z,100695.75
2023-05-14T05:20:45.850Z,100693.78
2023-05-14T05:23:48.660Z,100686.47
2023-05-14T05:26:51.936Z,100686.12
2023-05-14T05:29:54.697Z,100674.69
2023-05-14T05:32:57.690Z,100685.50
2023-05-14T05:36:00.648Z,100687.78
2023-05-14T05:39:03.176Z,100687.81
2023-05-14T05:42:06.453Z,100691.44
2023-05-14T05:45:09.340Z,100682.50
2023-05-14T05:48:12.120Z,100679.66
2023-05-14T05:51:14.594Z,100682.31
2023-05-14T05:54:17.517Z,100685.47
2023-05-14T05:57:19.904Z,100683.66
2023-05-14T06:00:24.003Z,100671.72
2023-05-14T06:03:28.402Z,100678.50
2023-05-14T06:06:32.732Z,100684.81
2023-05-14T06:09:35.550Z,100688.78
2023-05-14T06:12:37.982Z,100685.34
2023-05-14T06:15:40.710Z,100696.59
2023-05-14T06:18:43.307Z,100691.47
2023-05-14T06:21:46.154Z,100695.78
2023-05-14T06:24:49.130Z,100689.31
2023-05-14T06:27:51.863Z,100683.31
2023-05-14T06:30:54.387Z,100688.78
2023-05-14T06:33:57.205Z,100701.44
2023-05-14T06:37:00.398Z,100695.44
2023-05-14T06:40:03.708Z,100691.78
2023-05-14T06:43:06.728Z,100695.09
2023-05-14T06:46:09.634Z,100694.44
2023-05-14T06:49:12.205Z,100690.47
2023-05-14T06:52:15.183Z,100680.81
2023-05-14T06:55:17.735Z,100684.97
2023-05-14T06:58:20.547Z,100672.50
2023-05-14T07:01:23.085Z,100676.50
2023-05-14T07:04:26.272Z,100669.38
2023-05-14T07:07:28.864Z,100660.37
2023-05-14T07:10:32.138Z,100658.25
2023-05-14T07:13:34.582Z,100657.06
2023-05-14T07:16:37.461Z,100650.94
2023-05-14T07:19:40.389Z,100647.69
2023-05-14T07:22:43.150Z,100654.44
2023-05-14T07:25:46.191Z,100646.63
2023-05-14T07:28:48.994Z,100648.66
2023-05-14T07:31:51.894Z,100649.78
2023-05-14T07:34:54.827Z,100637.47
2023-05-14T07:37:57.378Z,100632.75
2023-05-14T07:41:00.789Z,100633.22
2023-05-14T07:44:03.381Z,100631.25
2023-05-14T07:47:07.900Z,100639.34
2023-05-14T07:50:11.027Z,100640.28
2023-05-14T07:53:13.860Z,100632.56
2023-05-14T07:56:16.519Z,100624.34
2023-05-14T07:59:20.365Z,100630.22
2023-05-14T08:02:23.585Z,100611.38
2023-05-14T08:05:26.722Z,100612.47
2023-05-14T08:08:29.581Z,100603.37
2023-05-14T08:11:32.341Z,100607.72
2023-05-14T08:14:34.937Z,100602.53
2023-05-14T08:17:37.794Z,100597.94
2023-05-14T08:20:40.664Z,100590.03
2023-05-14T08:23:43.950Z,100590.59
2023-05-14T08:26:46.682Z,100585.09
2023-05-14T08:29:53.384Z,100588.09
2023-05-14T08:32:55.978Z,100583.00
2023-05-14T08:36:00.517Z,100570.62
2023-05-14T08:39:03.390Z,100572.78
2023-05-14T08:42:07.852Z,100576.47
2023-05-14T08:45:14.071Z,100576.94
2023-05-14T08:48:19.430Z,100566.31
2023-05-14T08:51:22.193Z,100555.37
2023-05-14T08:54:27.072Z,100554.84
2023-05-14T08:57:31.200Z,100546.59
2023-05-14T09:00:34.421Z,100550.38
2023-05-14T09:03:37.666Z,100545.84
2023-05-14T09:06:42.134Z,100553.16
2023-05-14T09:09:45.936Z,100549.13
2023-05-14T09:12:48.782Z,100547.91
2023-05-14T09:15:52.027Z,100550.62
2023-05-14T09:18:55.209Z,100544.41
2023-05-14T09:21:59.216Z,100544.22
2023-05-14T09:25:07.086Z,100541.97
2023-05-14T09:28:09.711Z,100538.25
2023-05-14T09:31:13.440Z,100535.56
2023-05-14T09:34:25.390Z,100534.06
2023-05-14T09:37:28.738Z,100525.59
2023-05-14T09:40:31.235Z,100525.09
2023-05-14T09:43:34.029Z,100529.72
2023-05-14T09:46:36.736Z,100522.78
2023-05-14T09:49:40.175Z,100523.44
2023-05-14T09:52:42.774Z,100515.37
2023-05-14T09:55:45.701Z,100510.72
2023-05-14T09:58:48.490Z,100507.44
2023-05-14T10:01:52.361Z,100506.50
2023-05-14T10:04:58.930Z,100509.59
2023-05-14T10:08:06.133Z,100502.81
2023-05-14T10:11:14.398Z,100495.84
2023-05-14T10:14:55.956Z,100487.31
2023-05-14T10:18:05.375Z,100464.00
2023-05-14T10:21:09.884Z,100452.16
2023-05-14T10:24:14.449Z,100446.19
2023-05-14T10:27:17.467Z,100432.16
2023-05-14T10:30:24.023Z,100422.53
2023-05-14T10:33:38.167Z,100412.00
2023-05-14T10:36:43.717Z,100406.00
2023-05-14T10:40:06.478Z,100416.06
2023-05-14T10:43:11.318Z,100439.03
2023-05-14T10:46:14.652Z,100431.47
2023-05-14T10:49:28.261Z,100436.81
2023-05-14T10:52:42.389Z,100435.72
2023-05-14T10:55:45.943Z,100431.16
2023-05-14T10:58:50.091Z,100425.12
2023-05-14T11:01:53.308Z,100421.72
2023-05-14T11:05:10.688Z,100423.22
2023-05-14T11:08:14.868Z,100420.94
2023-05-14T11:11:19.213Z,100425.50
2023-05-14T11:14:22.835Z,100430.19
2023-05-14T11:17:29.481Z,100429.78
2023-05-14T11:20:32.838Z,100415.34
2023-05-14T11:23:35.313Z,100408.91
2023-05-14T11:26:38.266Z,100394.88
2023-05-14T11:29:45.159Z,100399.47
2023-05-14T11:32:49.900Z,100402.31
2023-05-14T11:35:52.467Z,100403.97
2023-05-14T11:38:55.230Z,100403.97
2023-05-14T11:41:58.732Z,100396.66
2023-05-14T11:45:01.673Z,100395.56
2023-05-14T11:48:12.084Z,100396.41
2023-05-14T11:51:15.090Z,100388.03
2023-05-14T11:54:17.582Z,100397.09
2023-05-14T11:57:21.560Z,100400.94
2023-05-14T12:00:25.226Z,100392.50
2023-05-14T12:03:30.637Z,100385.06
2023-05-14T12:06:33.594Z,100384.31
2023-05-14T12:09:43.032Z,100370.47
2023-05-14T12:12:48.969Z,100365.25
2023-05-14T12:15:57.551Z,100354.09
2023-05-14T12:19:02.611Z,100355.78
2023-05-14T12:22:06.096Z,100345.97
2023-05-14T12:25:15.678Z,100349.56
2023-05-14T12:28:20.030Z,100341.41
2023-05-14T12:31:33.361Z,100333.59
2023-05-14T12:34:39.098Z,100333.16
2023-05-14T12:37:42.780Z,100339.28
2023-05-14T12:40:45.778Z,100329.84
2023-05-14T12:43:49.409Z,100335.81
2023-05-14T12:46:52.482Z,100343.66
2023-05-14T12:49:55.007Z,100326.03
2023-05-14T12:52:57.901Z,100336.34
2023-05-14T12:56:00.386Z,100327.19
2023-05-14T12:59:03.142Z,100330.28
2023-05-14T13:02:05.740Z,100317.84
2023-05-14T13:05:08.762Z,100303.91
2023-05-14T13:08:11.241Z,100305.91
2023-05-14T13:11:14.110Z,100296.81
2023-05-14T13:14:17.852Z,100286.16
2023-05-14T13:17:21.829Z,100297.09
2023-05-14T13:20:25.706Z,100294.94
2023-05-14T13:23:28.536Z,100284.63
2023-05-14T13:26:32.248Z,100284.47
2023-05-14T13:29:35.215Z,100273.84
2023-05-14T13:32:38.548Z,100275.00
2023-05-14T13:35:42.438Z,100264.91
2023-05-14T13:38:48.486Z,100259.66
2023-05-14T13:41:51.580Z,100252.66
2023-05-14T13:44:54.155Z,100243.53
2023-05-14T13:47:56.987Z,100232.53
2023-05-14T13:50:59.524Z,100240.50
2023-05-14T13:54:02.334Z,100233.81
2023-05-14T13:57:05.616Z,100229.12
2023-05-14T14:00:09.587Z,100230.78
2023-05-14T14:03:12.573Z,100225.16
2023-05-14T14:06:17.387Z,100219.44
2023-05-14T14:09:20.104Z,100224.53
2023-05-14T14:12:22.716Z,100224.63
2023-05-14T14:15:25.737Z,100210.88
2023-05-14T14:18:28.377Z,100212.53
2023-05-14T14:21:31.805Z,100211.22
2023-05-14T14:24:34.400Z,100215.25
2023-05-14T14:27:38.802Z,100208.41
2023-05-14T14:30:41.631Z,100206.41
2023-05-14T14:33:44.392Z,100209.87
2023-05-14T14:36:46.826Z,100204.56
2023-05-14T14:39:51.721Z,100203.75
2023-05-14T14:42:54.362Z,100200.53
2023-05-14T14:45:57.221Z,100207.97
2023-05-14T14:48:59.678Z,100197.06
2023-05-14T14:52:02.503Z,100191.91
2023-05-14T14:55:05.648Z,100188.06
2023-05-14T14:58:08.459Z,100185.59
2023-05-14T15:01:11.110Z,100189.69
2023-05-14T15:04:17.432Z,100184.84
2023-05-14T15:07:20.565Z,100180.69
2023-05-14T15:10:23.514Z,100180.38
2023-05-14T15:13:27.015Z,100170.84
2023-05-14T15:16:29.865Z,100163.69
2023-05-14T15:19:32.424Z,100171.19
2023-05-14T15:22:35.342Z,100149.37
2023-05-14T15:25:37.929Z,100152.84
2023-05-14T15:28:40.822Z,100146.06
2023-05-14T15:31:44.991Z,100147.12
2023-05-14T15:34:47.817Z,100151.84
2023-05-14T15:37:50.417Z,100140.06
2023-05-14T15:40:53.341Z,100139.56
2023-05-14T15:43:56.457Z,100141.22
2023-05-14T15:46:59.193Z,100140.09
2023-05-14T15:50:02.363Z,100143.41
2023-05-14T15:53:05.283Z,100153.38
2023-05-14T15:56:07.955Z,100133.62
2023-05-14T15:59:10.775Z,100128.31
2023-05-14T16:02:14.533Z,100110.72
2023-05-14T16:05:17.459Z,100098.97
2023-05-14T16:08:19.969Z,100083.19
2023-05-14T16:11:22.838Z,100085.38
2023-05-14T16:14:25.339Z,100082.19
2023-05-14T16:17:28.602Z,100082.62
2023-05-14T16:20:31.076Z,100081.97
2023-05-14T16:23:33.848Z,100092.13
2023-05-14T16:26:36.498Z,100091.47
2023-05-14T16:29:39.349Z,100093.34
2023-05-14T16:32:42.185Z,100093.81
2023-05-14T16:35:45.549Z,100097.28
2023-05-14T16:39:06.078Z,100090.16
2023-05-14T16:42:10.663Z,100089.66
2023-05-14T16:45:13.409Z,100090.31
2023-05-14T16:48:16.251Z,100079.41
2023-05-14T16:51:18.845Z,100069.53
2023-05-14T16:54:21.725Z,100060.34
2023-05-14T16:57:24.287Z,100050.50
2023-05-14T17:00:27.047Z,100051.16
2023-05-14T17:03:29.578Z,100050.87
2023-05-14T17:06:32.459Z,100051.41
2023-05-14T17:09:34.995Z,100056.09
2023-05-14T17:12:37.948Z,100037.78
2023-05-14T17:15:41.964Z,100045.47
2023-05-14T17:18:45.744Z,100038.50
2023-05-14T17:21:48.388Z,100049.50
2023-05-14T17:24:51.113Z,100024.84
2023-05-14T17:27:53.583Z,100019.53
2023-05-14T17:30:56.974Z,100036.84
2023-05-14T17:33:59.449Z,100035.00
2023-05-14T17:37:02.249Z,100020.28
2023-05-14T17:40:05.639Z,100011.50
2023-05-14T17:43:08.591Z,100007.84
2023-05-14T17:46:11.196Z,100008.47
2023-05-14T17:49:14.066Z,100000.75
2023-05-14T17:52:16.813Z,100004.25
2023-05-14T17:55:19.710Z,99992.63
2023-05-14T17:58:22.265Z,99989.78
2023-05-14T18:01:25.277Z,99993.63
2023-05-14T18:04:28.299Z,99984.00
2023-05-14T18:07:31.096Z,99976.84
2023-05-14T18:10:34.328Z,99977.84
2023-05-14T18:13:37.038Z,99978.97
2023-05-14T18:16:40.299Z,99963.78
2023-05-14T18:19:43.100Z,99969.00
2023-05-14T18:22:46.220Z,99969.47
2023-05-14T18:25:49.464Z,99971.28
2023-05-14T18:28:52.740Z,99973.31
2023-05-14T18:31:55.677Z,99984.66
2023-05-14T18:34:58.879Z,99989.31
2023-05-14T18:38:02.804Z,99994.63
2023-05-14T18:41:06.077Z,99990.06
2023-05-14T18:44:09.067Z,99989.88
2023-05-14T18:47:13.315Z,99994.91
2023-05-14T18:50:16.333Z,99991.53
2023-05-14T18:53:19.583Z,99985.66
2023-05-14T18:56:22.512Z,99992.81
2023-05-14T18:59:25.760Z,99991.53
2023-05-14T19:02:29.259Z,99988.88
2023-05-14T19:05:32.618Z,99988.88
2023-05-14T19:08:35.864Z,99987.66
2023-05-14T19:11:39.598Z,99983.38
2023-05-14T19:14:42.498Z,99986.03
2023-05-14T19:17:45.785Z,99980.72
2023-05-14T19:20:48.881Z,99975.22
2023-05-14T19:23:52.110Z,99977.97
2023-05-14T19:26:54.993Z,99981.00
2023-05-14T19:29:58.158Z,99979.19
2023-05-14T19:33:01.503Z,99975.72
2023-05-14T19:36:05.325Z,99974.50
2023-05-14T19:39:08.263Z,99967.81
2023-05-14T19:42:11.485Z,99966.16
2023-05-14T19:45:15.064Z,99963.16
2023-05-14T19:48:19.356Z,99963.31
2023-05-14T19:51:22.244Z,99967.34
2023-05-14T19:54:25.313Z,99959.00
2023-05-14T19:57:28.072Z,99954.53
2023-05-14T20:00:31.647Z,99957.00
2023-05-14T20:03:35.624Z,99957.75
2023-05-14T20:06:40.310Z,99959.50
2023-05-14T20:09:43.305Z,99958.28
2023-05-14T20:12:45.953Z,99943.19
2023-05-14T20:15:48.835Z,99941.34
2023-05-14T20:18:53.224Z,99941.19
2023-05-14T20:21:56.469Z,99935.66
2023-05-14T20:24:59.121Z,99940.97
2023-05-14T20:28:01.970Z,99936.69
2023-05-14T20:31:04.461Z,99935.03
2023-05-14T20:34:07.233Z,99932.56
2023-05-14T20:37:10.058Z,99930.34
2023-05-14T20:40:12.898Z,99926.41
2023-05-14T20:43:15.465Z,99919.72
2023-05-14T20:46:18.280Z,99917.53
2023-05-14T20:49:20.823Z,99910.31
2023-05-14T20:52:23.671Z,99911.56
2023-05-14T20:55:26.583Z,99905.81
2023-05-14T20:58:29.587Z,99899.84
2023-05-14T21:01:32.317Z,99902.50
2023-05-14T21:04:35.395Z,99900.03
2023-05-14T21:07:39.371Z,99890.62
2023-05-14T21:10:42.223Z,99884.09
2023-05-14T21:13:44.698Z,99891.06
2023-05-14T21:16:47.863Z,99881.78
2023-05-14T21:19:50.423Z,99875.34
2023-05-14T21:22:53.187Z,99881.66
2023-05-14T21:25:55.832Z,99880.97
2023-05-14T21:28:59.273Z,99880.34
2023-05-14T21:32:01.780Z,99880.09
2023-05-14T21:35:05.393Z,99867.41
2023-05-14T21:38:08.986Z,99865.78
2023-05-14T21:41:11.783Z,99853.59
2023-05-14T21:44:14.228Z,99853.22
2023-05-14T21:47:17.199Z,99826.19
2023-05-14T21:50:19.757Z,99812.91
2023-05-14T21:53:22.527Z,99811.84
2023-05-14T21:56:25.105Z,99812.28
2023-05-14T21:59:27.981Z,99807.53
2023-05-14T22:02:31.217Z,99806.72
2023-05-14T22:05:34.044Z,99802.78
2023-05-14T22:08:36.555Z,99802.59
2023-05-14T22:11:39.237Z,99809.94
2023-05-14T22:14:41.943Z,99812.59
2023-05-14T22:17:44.739Z,99799.66
2023-05-14T22:20:47.227Z,99817.69
2023-05-14T22:23:50.365Z,99814.41
2023-05-14T22:26:52.949Z,99814.25
2023-05-14T22:29:55.702Z,99824.31
2023-05-14T22:32:58.216Z,99811.19
2023-05-14T22:36:01.136Z,99820.25
2023-05-14T22:39:03.613Z,99816.78
2023-05-14T22:42:06.403Z,99808.81
2023-05-14T22:45:09.367Z,99817.59
2023-05-14T22:48:12.119Z,99814.12
2023-05-14T22:51:15.867Z,99816.38
2023-05-14T22:54:18.650Z,99813.13
2023-05-14T22:57:21.122Z,99809.63
2023-05-14T23:00:24.147Z,99808.25
2023-05-14T23:03:26.697Z,99816.78
2023-05-14T23:06:30.140Z,99795.34
2023-05-14T23:09:32.618Z,99802.94
2023-05-14T23:12:35.436Z,99800.44
2023-05-14T23:15:38.792Z,99807.81
2023-05-14T23:18:41.815Z,99804.13
2023-05-14T23:21:44.476Z,99800.44
2023-05-14T23:24:47.193Z,99790.66
2023-05-14T23:27:50.053Z,99791.91
2023-05-14T23:30:52.788Z,99780.09
2023-05-14T23:33:56.889Z,99772.97
2023-05-14T23:36:59.846Z,99757.59
2023-05-14T23:40:02.516Z,99752.47
2023-05-14T23:43:05.332Z,99750.37
2023-05-14T23:46:08.805Z,99750.56
2023-05-14T23:49:12.441Z,99753.03
2023-05-14T23:52:14.984Z,99741.41
2023-05-14T23:55:17.856Z,99740.56
2023-05-14T23:58:20.432Z,99730.00
